Amy-c — MKWC7 — position and weather

sailwx.info

Track history (hours):
 
Tides and Currents Weather Stations Pressure Air Temp Water Temp Dewpoint Dewpoint Depression Visibility Wind Speed Wind Dir Waves Ship Positions

Amy-c

Last reported at 2015-Jan-22 19:33 UTC. Time now 2015-Jan-30 00:25 UTC.
Position N 55°32' E 015°07'.

Length 137 m; draft 5.6 m.

Type: Cargo ship. MMSI: 235010170.

Date/timePositionNaut miles runAvg speedWind from/ knotsBaromVisibWave heightAir tempDewpointWater temp
2015-Jan-22 19:33N 55°32' E 015°07'1313.4
2015-Jan-22 18:33N 55°26' E 014°46'1312.6
2015-Jan-22 17:33N 55°17' E 014°30'1312.8
2015-Jan-22 16:33N 55°07' E 014°16'1212.3
2015-Jan-22 15:33N 54°59' E 013°59'1312.9
2015-Jan-22 14:33N 54°55' E 013°38'1312.8
2015-Jan-22 13:32N 54°51' E 013°16'1312.9
2015-Jan-22 12:33N 54°47' E 012°55'1212.5
2015-Jan-22 11:33N 54°42' E 012°36'1212.4
2015-Jan-22 10:33N 54°35' E 012°18'1211.8
2015-Jan-22 09:33N 54°24' E 012°10'1212.1
2015-Jan-22 08:33N 54°24' E 011°49'1212.4
2015-Jan-22 07:33N 54°29' E 011°30'1212.0
2015-Jan-22 06:33N 54°35' E 011°11'1211.8
2015-Jan-22 05:30N 54°34' E 010°50'1312.8
2015-Jan-22 04:30N 54°32' E 010°28'1111.2
2015-Jan-22 03:33N 54°26' E 010°13'5 4.7
2015-Jan-22 02:33N 54°22' E 010°09'6 5.7
2015-Jan-22 01:33N 54°21' E 009°59'8 8.0
2015-Jan-22 00:33N 54°21' E 009°45'8 6.3
2015-Jan-21 23:20N 54°15' E 009°37'3 6.2
2015-Jan-21 22:50N 54°12' E 009°34'1 8.6
2015-Jan-21 22:46N 54°12' E 009°33'2 8.4
2015-Jan-21 22:33N 54°11' E 009°30'7 6.1
2015-Jan-21 21:25N 54°08' E 009°20'6 6.4
2015-Jan-21 20:33N 54°02' E 009°18'5 4.6
2015-Jan-21 19:33N 53°58' E 009°15'6 5.9
2015-Jan-21 18:33N 53°54' E 009°09'1 1.5
2015-Jan-21 17:33N 53°53' E 009°06'1 0.9
2015-Jan-21 16:33N 53°53' E 009°05'0 0.0
2015-Jan-21 15:33N 53°53' E 009°05'0 0.0
2015-Jan-21 14:33N 53°53' E 009°05'1 1.0
2015-Jan-21 13:33N 53°52' E 009°04'1212.2
2015-Jan-21 12:33N 53°52' E 008°43'1312.6
2015-Jan-21 11:33N 53°59' E 008°25'1413.6
2015-Jan-21 10:33N 53°59' E 008°02'1514.7
2015-Jan-21 09:33N 53°56' E 007°38'1515.0
2015-Jan-21 08:33N 53°53' E 007°13'3214.7
2015-Jan-21 06:23N 53°45' E 006°20'1214.5
2015-Jan-21 05:33N 53°41' E 006°01'1514.6
2015-Jan-21 04:33N 53°36' E 005°38'1413.7
2015-Jan-21 03:33N 53°32' E 005°16'1313.5
2015-Jan-21 02:34N 53°28' E 004°55'1212.2
2015-Jan-21 01:33N 53°20' E 004°39'1313.2
2015-Jan-21 00:32N 53°08' E 004°29'1312.8
2015-Jan-20 23:32N 52°56' E 004°19'1812.6
2015-Jan-20 22:04N 52°40' E 004°03'812.4
2015-Jan-20 21:23N 52°33' E 003°56'1012.3
2015-Jan-20 20:34N 52°23' E 003°53'1212.3
2015-Jan-20 19:33N 52°11' E 003°54'10 9.6
2015-Jan-20 18:34N 52°02' E 003°58'1212.4
2015-Jan-20 17:33N 51°55' E 004°15'2 1.9
2015-Jan-20 16:30N 51°54' E 004°17'0 0.0
2015-Jan-20 15:33N 51°54' E 004°17'0 0.0
2015-Jan-20 14:33N 51°54' E 004°17'0 0.0
2015-Jan-20 13:27N 51°54' E 004°17'0 0.0
2015-Jan-20 12:33N 51°54' E 004°17'0 0.0
2015-Jan-20 11:33N 51°54' E 004°17'0 0.0
2015-Jan-20 10:33N 51°54' E 004°17'0 0.0
2015-Jan-20 09:33N 51°54' E 004°17'0 0.0
2015-Jan-20 08:33N 51°54' E 004°17'0 0.0
2015-Jan-20 07:33N 51°54' E 004°17'0 0.0
2015-Jan-20 06:33N 51°54' E 004°17'0 0.0
2015-Jan-20 05:27N 51°54' E 004°17'0 0.0
2015-Jan-20 04:27N 51°54' E 004°17'0 0.0
2015-Jan-20 03:33N 51°54' E 004°17'0 0.0
2015-Jan-20 02:33N 51°54' E 004°17'0 0.0
2015-Jan-20 01:33N 51°54' E 004°17'0 0.0
2015-Jan-20 00:34N 51°54' E 004°17'0 0.0
2015-Jan-19 23:33N 51°54' E 004°17'0 0.0
2015-Jan-19 22:33N 51°54' E 004°17'0 0.0
2015-Jan-19 21:33N 51°54' E 004°17'0 0.0
2015-Jan-19 20:34N 51°54' E 004°17'0 0.0
2015-Jan-19 19:34N 51°54' E 004°17'0 0.0
2015-Jan-19 18:33N 51°54' E 004°17'0 0.0
2015-Jan-19 17:33N 51°54' E 004°17'0 0.0
2015-Jan-19 16:33N 51°54' E 004°17'0 0.0
2015-Jan-19 15:34N 51°54' E 004°17'0 0.0
2015-Jan-19 14:34N 51°54' E 004°17'0 0.0
2015-Jan-19 13:33N 51°54' E 004°17'0 0.0
2015-Jan-19 12:34N 51°54' E 004°17'0 0.0
2015-Jan-19 11:34N 51°54' E 004°17'0 0.0
2015-Jan-19 10:33N 51°54' E 004°17'0 0.0
2015-Jan-19 09:34N 51°54' E 004°17'0 0.0
2015-Jan-19 08:34N 51°54' E 004°17'0 0.0
2015-Jan-19 07:33N 51°54' E 004°17'0 0.0
2015-Jan-19 06:34N 51°54' E 004°17'0 0.0
2015-Jan-19 05:33N 51°54' E 004°17'0 0.0
2015-Jan-19 04:34N 51°54' E 004°17'0 0.0
2015-Jan-19 03:33N 51°54' E 004°17'0 0.0
2015-Jan-19 02:33N 51°54' E 004°17'0 0.0
2015-Jan-19 01:33N 51°54' E 004°17'0 0.0
2015-Jan-19 00:33N 51°54' E 004°17'0 0.0
2015-Jan-18 23:34N 51°54' E 004°17'0 0.0
2015-Jan-18 22:33N 51°54' E 004°17'0 0.0
2015-Jan-18 21:33N 51°54' E 004°17'0 0.0
2015-Jan-18 20:33N 51°54' E 004°17'0 0.0
2015-Jan-18 19:34N 51°54' E 004°17'0 0.0
2015-Jan-18 18:33N 51°54' E 004°17'0 0.0
2015-Jan-18 17:33N 51°54' E 004°17'0 0.0
2015-Jan-18 16:33N 51°54' E 004°17'0 0.0
2015-Jan-18 15:34N 51°54' E 004°17'0 0.0
2015-Jan-18 14:33N 51°54' E 004°17'0 0.0
2015-Jan-18 13:33N 51°54' E 004°17'0 0.0
2015-Jan-18 12:34N 51°54' E 004°17'0 0.0
2015-Jan-18 11:34N 51°54' E 004°17'0 0.0
2015-Jan-18 10:33N 51°54' E 004°17'0 0.0
2015-Jan-18 09:33N 51°54' E 004°17'0 0.0
2015-Jan-18 08:33N 51°54' E 004°17'0 0.0
2015-Jan-18 07:33N 51°54' E 004°17'0 0.0
2015-Jan-18 06:34N 51°54' E 004°17'0 0.0
2015-Jan-18 05:33N 51°54' E 004°17'0 0.0
2015-Jan-18 04:33N 51°54' E 004°17'0 0.0
2015-Jan-18 03:33N 51°54' E 004°17'0 0.0
2015-Jan-18 02:33N 51°54' E 004°17'0 0.0
2015-Jan-18 01:33N 51°54' E 004°17'0 0.0
2015-Jan-18 00:33N 51°54' E 004°17'0 0.0
2015-Jan-17 23:33N 51°54' E 004°17'0 0.0
2015-Jan-17 22:33N 51°54' E 004°17'0 0.0
2015-Jan-17 21:33N 51°54' E 004°17'0 0.0
2015-Jan-17 20:34N 51°54' E 004°17'0 0.0
2015-Jan-17 19:34N 51°54' E 004°17'0 0.0
2015-Jan-17 18:34N 51°54' E 004°17'0 0.0
2015-Jan-17 17:33N 51°54' E 004°17'0 0.0
2015-Jan-17 16:33N 51°54' E 004°17'0 0.0
2015-Jan-17 15:33N 51°54' E 004°17'0 0.0
2015-Jan-17 14:33N 51°54' E 004°17'0 0.0
2015-Jan-17 13:34N 51°54' E 004°17'0 0.0
2015-Jan-17 12:33N 51°54' E 004°17'0 0.0
2015-Jan-17 11:33N 51°54' E 004°17'0 0.0
2015-Jan-17 10:33N 51°54' E 004°17'0 0.0
2015-Jan-17 09:33N 51°54' E 004°17'0 0.0
2015-Jan-17 08:33N 51°54' E 004°17'0 0.0
2015-Jan-17 07:33N 51°54' E 004°17'5 5.4
2015-Jan-17 06:33N 51°57' E 004°10'10 9.6
2015-Jan-17 05:33N 52°00' E 003°56'10 9.1
2015-Jan-17 04:28N 51°58' E 003°40'50 7.2
2015-Jan-16 21:32N 51°38' E 002°26'1010.6
2015-Jan-16 20:33N 51°30' E 002°15'1010.3
2015-Jan-16 19:34N 51°21' E 002°09'1010.1
2015-Jan-16 18:34N 51°12' E 001°59'1010.0
2015-Jan-16 17:34N 51°08' E 001°45'9 8.8
2015-Jan-16 16:33N 51°01' E 001°36'9 9.5
2015-Jan-16 15:33N 51°05' E 001°23'6 6.3
2015-Jan-16 14:33N 50°59' E 001°27'  
Track history (hours):
 
Tides and Currents Weather Stations Pressure Air Temp Water Temp Dewpoint Dewpoint Depression Visibility Wind Speed Wind Dir Waves Ship Positions

Amy-c

Last reported at 2015-Jan-22 19:33 UTC. Time now 2015-Jan-30 00:25 UTC.
Position N 55°32' E 015°07'.

Length 137 m; draft 5.6 m.

Type: Cargo ship. MMSI: 235010170.

Date/timePositionNaut miles runAvg speedWind from/ knotsBaromVisibWave heightAir tempDewpointWater temp
2015-Jan-22 19:33N 55°32' E 015°07'1313.4
2015-Jan-22 18:33N 55°26' E 014°46'1312.6
2015-Jan-22 17:33N 55°17' E 014°30'1312.8
2015-Jan-22 16:33N 55°07' E 014°16'1212.3
2015-Jan-22 15:33N 54°59' E 013°59'1312.9
2015-Jan-22 14:33N 54°55' E 013°38'1312.8
2015-Jan-22 13:32N 54°51' E 013°16'1312.9
2015-Jan-22 12:33N 54°47' E 012°55'1212.5
2015-Jan-22 11:33N 54°42' E 012°36'1212.4
2015-Jan-22 10:33N 54°35' E 012°18'1211.8
2015-Jan-22 09:33N 54°24' E 012°10'1212.1
2015-Jan-22 08:33N 54°24' E 011°49'1212.4
2015-Jan-22 07:33N 54°29' E 011°30'1212.0
2015-Jan-22 06:33N 54°35' E 011°11'1211.8
2015-Jan-22 05:30N 54°34' E 010°50'1312.8
2015-Jan-22 04:30N 54°32' E 010°28'1111.2
2015-Jan-22 03:33N 54°26' E 010°13'5 4.7
2015-Jan-22 02:33N 54°22' E 010°09'6 5.7
2015-Jan-22 01:33N 54°21' E 009°59'8 8.0
2015-Jan-22 00:33N 54°21' E 009°45'8 6.3
2015-Jan-21 23:20N 54°15' E 009°37'3 6.2
2015-Jan-21 22:50N 54°12' E 009°34'1 8.6
2015-Jan-21 22:46N 54°12' E 009°33'2 8.4
2015-Jan-21 22:33N 54°11' E 009°30'7 6.1
2015-Jan-21 21:25N 54°08' E 009°20'6 6.4
2015-Jan-21 20:33N 54°02' E 009°18'5 4.6
2015-Jan-21 19:33N 53°58' E 009°15'6 5.9
2015-Jan-21 18:33N 53°54' E 009°09'1 1.5
2015-Jan-21 17:33N 53°53' E 009°06'1 0.9
2015-Jan-21 16:33N 53°53' E 009°05'0 0.0
2015-Jan-21 15:33N 53°53' E 009°05'0 0.0
2015-Jan-21 14:33N 53°53' E 009°05'1 1.0
2015-Jan-21 13:33N 53°52' E 009°04'1212.2
2015-Jan-21 12:33N 53°52' E 008°43'1312.6
2015-Jan-21 11:33N 53°59' E 008°25'1413.6
2015-Jan-21 10:33N 53°59' E 008°02'1514.7
2015-Jan-21 09:33N 53°56' E 007°38'1515.0
2015-Jan-21 08:33N 53°53' E 007°13'3214.7
2015-Jan-21 06:23N 53°45' E 006°20'1214.5
2015-Jan-21 05:33N 53°41' E 006°01'1514.6
2015-Jan-21 04:33N 53°36' E 005°38'1413.7
2015-Jan-21 03:33N 53°32' E 005°16'1313.5
2015-Jan-21 02:34N 53°28' E 004°55'1212.2
2015-Jan-21 01:33N 53°20' E 004°39'1313.2
2015-Jan-21 00:32N 53°08' E 004°29'1312.8
2015-Jan-20 23:32N 52°56' E 004°19'1812.6
2015-Jan-20 22:04N 52°40' E 004°03'812.4
2015-Jan-20 21:23N 52°33' E 003°56'1012.3
2015-Jan-20 20:34N 52°23' E 003°53'1212.3
2015-Jan-20 19:33N 52°11' E 003°54'10 9.6
2015-Jan-20 18:34N 52°02' E 003°58'1212.4
2015-Jan-20 17:33N 51°55' E 004°15'2 1.9
2015-Jan-20 16:30N 51°54' E 004°17'0 0.0
2015-Jan-20 15:33N 51°54' E 004°17'0 0.0
2015-Jan-20 14:33N 51°54' E 004°17'0 0.0
2015-Jan-20 13:27N 51°54' E 004°17'0 0.0
2015-Jan-20 12:33N 51°54' E 004°17'0 0.0
2015-Jan-20 11:33N 51°54' E 004°17'0 0.0
2015-Jan-20 10:33N 51°54' E 004°17'0 0.0
2015-Jan-20 09:33N 51°54' E 004°17'0 0.0
2015-Jan-20 08:33N 51°54' E 004°17'0 0.0
2015-Jan-20 07:33N 51°54' E 004°17'0 0.0
2015-Jan-20 06:33N 51°54' E 004°17'0 0.0
2015-Jan-20 05:27N 51°54' E 004°17'0 0.0
2015-Jan-20 04:27N 51°54' E 004°17'0 0.0
2015-Jan-20 03:33N 51°54' E 004°17'0 0.0
2015-Jan-20 02:33N 51°54' E 004°17'0 0.0
2015-Jan-20 01:33N 51°54' E 004°17'0 0.0
2015-Jan-20 00:34N 51°54' E 004°17'0 0.0
2015-Jan-19 23:33N 51°54' E 004°17'0 0.0
2015-Jan-19 22:33N 51°54' E 004°17'0 0.0
2015-Jan-19 21:33N 51°54' E 004°17'0 0.0
2015-Jan-19 20:34N 51°54' E 004°17'0 0.0
2015-Jan-19 19:34N 51°54' E 004°17'0 0.0
2015-Jan-19 18:33N 51°54' E 004°17'0 0.0
2015-Jan-19 17:33N 51°54' E 004°17'0 0.0
2015-Jan-19 16:33N 51°54' E 004°17'0 0.0
2015-Jan-19 15:34N 51°54' E 004°17'0 0.0
2015-Jan-19 14:34N 51°54' E 004°17'0 0.0
2015-Jan-19 13:33N 51°54' E 004°17'0 0.0
2015-Jan-19 12:34N 51°54' E 004°17'0 0.0
2015-Jan-19 11:34N 51°54' E 004°17'0 0.0
2015-Jan-19 10:33N 51°54' E 004°17'0 0.0
2015-Jan-19 09:34N 51°54' E 004°17'0 0.0
2015-Jan-19 08:34N 51°54' E 004°17'0 0.0
2015-Jan-19 07:33N 51°54' E 004°17'0 0.0
2015-Jan-19 06:34N 51°54' E 004°17'0 0.0
2015-Jan-19 05:33N 51°54' E 004°17'0 0.0
2015-Jan-19 04:34N 51°54' E 004°17'0 0.0
2015-Jan-19 03:33N 51°54' E 004°17'0 0.0
2015-Jan-19 02:33N 51°54' E 004°17'0 0.0
2015-Jan-19 01:33N 51°54' E 004°17'0 0.0
2015-Jan-19 00:33N 51°54' E 004°17'0 0.0
2015-Jan-18 23:34N 51°54' E 004°17'0 0.0
2015-Jan-18 22:33N 51°54' E 004°17'0 0.0
2015-Jan-18 21:33N 51°54' E 004°17'0 0.0
2015-Jan-18 20:33N 51°54' E 004°17'0 0.0
2015-Jan-18 19:34N 51°54' E 004°17'0 0.0
2015-Jan-18 18:33N 51°54' E 004°17'0 0.0
2015-Jan-18 17:33N 51°54' E 004°17'0 0.0
2015-Jan-18 16:33N 51°54' E 004°17'0 0.0
2015-Jan-18 15:34N 51°54' E 004°17'0 0.0
2015-Jan-18 14:33N 51°54' E 004°17'0 0.0
2015-Jan-18 13:33N 51°54' E 004°17'0 0.0
2015-Jan-18 12:34N 51°54' E 004°17'0 0.0
2015-Jan-18 11:34N 51°54' E 004°17'0 0.0
2015-Jan-18 10:33N 51°54' E 004°17'0 0.0
2015-Jan-18 09:33N 51°54' E 004°17'0 0.0
2015-Jan-18 08:33N 51°54' E 004°17'0 0.0
2015-Jan-18 07:33N 51°54' E 004°17'0 0.0
2015-Jan-18 06:34N 51°54' E 004°17'0 0.0
2015-Jan-18 05:33N 51°54' E 004°17'0 0.0
2015-Jan-18 04:33N 51°54' E 004°17'0 0.0
2015-Jan-18 03:33N 51°54' E 004°17'0 0.0
2015-Jan-18 02:33N 51°54' E 004°17'0 0.0
2015-Jan-18 01:33N 51°54' E 004°17'0 0.0
2015-Jan-18 00:33N 51°54' E 004°17'0 0.0
2015-Jan-17 23:33N 51°54' E 004°17'0 0.0
2015-Jan-17 22:33N 51°54' E 004°17'0 0.0
2015-Jan-17 21:33N 51°54' E 004°17'0 0.0
2015-Jan-17 20:34N 51°54' E 004°17'0 0.0
2015-Jan-17 19:34N 51°54' E 004°17'0 0.0
2015-Jan-17 18:34N 51°54' E 004°17'0 0.0
2015-Jan-17 17:33N 51°54' E 004°17'0 0.0
2015-Jan-17 16:33N 51°54' E 004°17'0 0.0
2015-Jan-17 15:33N 51°54' E 004°17'0 0.0
2015-Jan-17 14:33N 51°54' E 004°17'0 0.0
2015-Jan-17 13:34N 51°54' E 004°17'0 0.0
2015-Jan-17 12:33N 51°54' E 004°17'0 0.0
2015-Jan-17 11:33N 51°54' E 004°17'0 0.0
2015-Jan-17 10:33N 51°54' E 004°17'0 0.0
2015-Jan-17 09:33N 51°54' E 004°17'0 0.0
2015-Jan-17 08:33N 51°54' E 004°17'0 0.0
2015-Jan-17 07:33N 51°54' E 004°17'5 5.4
2015-Jan-17 06:33N 51°57' E 004°10'10 9.6
2015-Jan-17 05:33N 52°00' E 003°56'10 9.1
2015-Jan-17 04:28N 51°58' E 003°40'50 7.2
2015-Jan-16 21:32N 51°38' E 002°26'1010.6
2015-Jan-16 20:33N 51°30' E 002°15'1010.3
2015-Jan-16 19:34N 51°21' E 002°09'1010.1
2015-Jan-16 18:34N 51°12' E 001°59'1010.0
2015-Jan-16 17:34N 51°08' E 001°45'9 8.8
2015-Jan-16 16:33N 51°01' E 001°36'9 9.5
2015-Jan-16 15:33N 51°05' E 001°23'6 6.3
2015-Jan-16 14:33N 50°59' E 001°27'  

Dump ship's entire track history